Home > Products > Valid Products > MTR

000
SAUS45 KPIH 251152
MTRSNT
METAR KSNT 251151Z AUTO 00000KT M02/M03 A3006 RMK AO1 SLP136 70005
T10221033 10006 21028 56017





000
SAUS45 KPIH 251052
MTRSNT
METAR KSNT 251051Z AUTO 00000KT M03/M03 A3007 RMK AO1 SLP137
T10281033





000
SAUS45 KPIH 251052
MTRSNT
METAR KSNT 251051Z AUTO 00000KT M03/M03 A3007 RMK AO1 SLP137
T10281033





000
SAUS45 KPIH 250952
MTRSNT
METAR KSNT 250951Z AUTO 00000KT M02/M04 A3009 RMK AO1 SLP140
T10221039





000
SAUS45 KPIH 250852
MTRSNT
METAR KSNT 250851Z AUTO 00000KT M02/M03 A3012 RMK AO1 SLP153
T10221033 56006





000
SAUS45 KPIH 250752
MTRSNT
METAR KSNT 250751Z AUTO 00000KT M01/M03 A3013 RMK AO1 SLP160
T10111028





000
SAUS45 KPIH 250652
MTRSNT
METAR KSNT 250651Z AUTO 00000KT M01/M02 A3013 RMK AO1 SLP166
T10111022 401561011





000
SAUS45 KPIH 250553
MTRSNT
METAR KSNT 250551Z AUTO 26003KT 00/M02 A3014 RMK AO1 SLP171
T00001017 10117 20000 50004





000
SAUS45 KPIH 250452
MTRSNT
METAR KSNT 250451Z AUTO 26003KT 01/M01 A3014 RMK AO1 SLP172
T00061011





000
SAUS45 KPIH 250352
MTRSNT
METAR KSNT 250351Z AUTO 00000KT 02/M01 A3013 RMK AO1 SLP168
T00171011





000
SAUS45 KPIH 250352
MTRSNT
METAR KSNT 250351Z AUTO 00000KT 02/M01 A3013 RMK AO1 SLP168
T00171011





000
SAUS45 KPIH 250252
MTRSNT
METAR KSNT 250251Z AUTO 00000KT 03/M01 A3013 RMK AO1 SLP163
T00331006 53001





000
SAUS45 KPIH 250152
MTRSNT
METAR KSNT 250151Z AUTO 30003KT 06/M01 A3013 RMK AO1 SLP155
T00611006





000
SAUS45 KPIH 250052
MTRSNT
METAR KSNT 250051Z AUTO 19004KT 09/M02 A3012 RMK AO1 SLP147
T00891017





000
SAUS45 KPIH 242352
MTRSNT
METAR KSNT 242351Z AUTO 15004KT 12/M02 A3012 RMK AO1 SLP143
T01171022 10156 20072 50001





000
SAUS45 KPIH 242252
MTRSNT
METAR KSNT 242251Z AUTO 20005G16KT 15/M04 A3013 RMK AO1 SLP137
T01501044





000
SAUS45 KPIH 242152
MTRSNT
METAR KSNT 242151Z AUTO 27010G16KT 15/M06 A3012 RMK AO1 SLP133
T01501056





000
SAUS45 KPIH 242052
MTRSNT
METAR KSNT 242051Z AUTO 17005KT 14/M03 A3012 RMK AO1 SLP137
T01441033 58015





000
SAUS45 KPIH 241952
MTRSNT
METAR KSNT 241951Z AUTO VRB05KT 11/04 A3014 RMK AO1 SLP153 T01060039





000
SAUS45 KPIH 241952
MTRSNT
METAR KSNT 241951Z AUTO VRB05KT 11/04 A3014 RMK AO1 SLP153 T01060039





000
SAUS45 KPIH 241852
MTRSNT
METAR KSNT 241851Z AUTO 32003KT 08/04 A3016 RMK AO1 SLP164 T00830039





000
SAUS45 KPIH 241752
MTRSNT
METAR KSNT 241751Z AUTO 34004KT 07/04 A3017 RMK AO1 SLP172 60005
T00720044 10072 20050 50005





000
SAUS45 KPIH 241652
MTRSNT
METAR KSNT 241651Z AUTO 00000KT 07/04 A3018 RMK AO1 SLP175 T00670044





000
SAUS45 KPIH 241552
MTRSNT
METAR KSNT 241551Z AUTO VRB03KT 06/04 A3017 RMK AO1 SLP172 T00610044





000
SAUS45 KPIH 241452
MTRSNT
METAR KSNT 241451Z AUTO 15006KT 05/03 A3016 RMK AO1 SLP168 60005
T00500033 53009





000
SAUS45 KPIH 241353 COR
MTRSNT
METAR KSNT 241351Z AUTO 17006KT 06/03 A3013 RMK AO1 SLP158 P0002
T00560028





000
SAUS45 KPIH 241252
MTRSNT
METAR KSNT 241251Z AUTO 14008KT 06/03 A3013 RMK AO1 SLP156 P0003
T00560033





000
SAUS45 KPIH 241152
MTRSNT
METAR KSNT 241151Z AUTO 00000KT 04/04 A3012 RMK AO1 SLP151 P0001
60006 70012 T00440039 10056 20044 58003





000
SAUS45 KPIH 241052
MTRSNT
METAR KSNT 241051Z AUTO 00000KT 04/04 A3013 RMK AO1 SLP151 P0002
T00440039





000
SAUS45 KPIH 241052
MTRSNT
METAR KSNT 241051Z AUTO 00000KT 04/04 A3013 RMK AO1 SLP151 P0002
T00440039





000
SAUS45 KPIH 240952
MTRSNT
METAR KSNT 240951Z AUTO 00000KT 04/04 A3013 RMK AO1 SLP152 P0002
T00440039





000
SAUS45 KPIH 240852
MTRSNT
METAR KSNT 240851Z AUTO 20003KT 04/04 A3014 RMK AO1 SLP151 P0001
60001 T00440039 51005





000
SAUS45 KPIH 240752
MTRSNT
METAR KSNT 240751Z AUTO 00000KT 05/04 A3013 RMK AO1 SLP150 T00500039





000
SAUS45 KPIH 240652
MTRSNT
METAR KSNT 240651Z AUTO 00000KT 05/04 A3012 RMK AO1 SLP148 T00500039
401170044





000
SAUS45 KPIH 240552
MTRSNT
METAR KSNT 240551Z AUTO 34006KT 05/03 A3012 RMK AO1 SLP149 60003
T00500033 10083 20044 51005





000
SAUS45 KPIH 240452
MTRSNT
METAR KSNT 240451Z AUTO 00000KT 04/03 A3011 RMK AO1 SLP151 T00440033





000
SAUS45 KPIH 240452
MTRSNT
METAR KSNT 240451Z AUTO 00000KT 04/03 A3011 RMK AO1 SLP151 T00440033





000
SAUS45 KPIH 240352
MTRSNT
METAR KSNT 240351Z AUTO 00000KT 05/04 A3011 RMK AO1 SLP151 T00500039





000
SAUS45 KPIH 240352
MTRSNT
METAR KSNT 240351Z AUTO 00000KT 05/04 A3011 RMK AO1 SLP151 T00500039





000
SAUS45 KPIH 240252
MTRSNT
METAR KSNT 240251Z AUTO 00000KT 06/04 A3010 RMK AO1 SLP148 P0002
60003 T00560044 51009





000
SAUS45 KPIH 240252
MTRSNT
METAR KSNT 240251Z AUTO 00000KT 06/04 A3010 RMK AO1 SLP148 P0002
60003 T00560044 51009





000
SAUS45 KPIH 240152
MTRSNT
METAR KSNT 240151Z AUTO 27003KT 06/04 A3009 RMK AO1 SLP144 P0001
T00610044





000
SAUS45 KPIH 240152
MTRSNT
METAR KSNT 240151Z AUTO 27003KT 06/04 A3009 RMK AO1 SLP144 P0001
T00610044





000
SAUS45 KPIH 240053 COR
MTRSNT
METAR KSNT 240051Z AUTO 00000KT 07/03 A3008 RMK AO1 SLP143 T00670033





000
SAUS45 KPIH 232352
MTRSNT
METAR KSNT 232351Z AUTO 18005KT 08/03 A3007 RMK AO1 SLP131 T00830028
10117 20083 53001





000
SAUS45 KPIH 232252
MTRSNT
METAR KSNT 232251Z AUTO 18005KT 09/02 A3007 RMK AO1 SLP129 T00940017





000
SAUS45 KPIH 232152
MTRSNT
METAR KSNT 232151Z AUTO 17009G16KT 10/02 A3006 RMK AO1 SLP126
T01000022





000
SAUS45 KPIH 232152
MTRSNT
METAR KSNT 232151Z AUTO 17009G16KT 10/02 A3006 RMK AO1 SLP126
T01000022





000
SAUS45 KPIH 232052
MTRSNT
METAR KSNT 232051Z AUTO 16010G18KT 130V200 11/02 A3006 RMK AO1
SLP122 T01110022 56016





000
SAUS45 KPIH 231952
MTRSNT
METAR KSNT 231951Z AUTO 14007G16KT 10/03 A3008 RMK AO1 SLP127
T01000028





000
SAUS45 KPIH 231952
MTRSNT
METAR KSNT 231951Z AUTO 14007G16KT 10/03 A3008 RMK AO1 SLP127
T01000028





000
SAUS45 KPIH 231852
MTRSNT
METAR KSNT 231851Z AUTO 17015G21KT 09/02 A3009 RMK AO1 SLP132
T00940022





000
SAUS45 KPIH 231852
MTRSNT
METAR KSNT 231851Z AUTO 17015G21KT 09/02 A3009 RMK AO1 SLP132
T00940022





000
SAUS45 KPIH 231752
MTRSNT
METAR KSNT 231751Z AUTO 16009KT 08/03 A3012 RMK AO1 SLP145 60003
T00830033 10083 20044 58001





000
SAUS45 KPIH 231752
MTRSNT
METAR KSNT 231751Z AUTO 16009KT 08/03 A3012 RMK AO1 SLP145 60003
T00830033 10083 20044 58001





000
SAUS45 KPIH 231652
MTRSNT
METAR KSNT 231651Z AUTO 00000KT 07/04 A3013 RMK AO1 SLP152 T00720039





000
SAUS45 KPIH 231652
MTRSNT
METAR KSNT 231651Z AUTO 00000KT 07/04 A3013 RMK AO1 SLP152 T00720039





000
SAUS45 KPIH 231552
MTRSNT
METAR KSNT 231551Z AUTO 16005KT 06/04 A3013 RMK AO1 SLP156 T00560039





000
SAUS45 KPIH 231552
MTRSNT
METAR KSNT 231551Z AUTO 16005KT 06/04 A3013 RMK AO1 SLP156 T00560039





000
SAUS45 KPIH 231452
MTRSNT
METAR KSNT 231451Z AUTO 15006KT 05/03 A3013 RMK AO1 SLP158 P0001
60003 T00500033 51010





000
SAUS45 KPIH 231452
MTRSNT
METAR KSNT 231451Z AUTO 15006KT 05/03 A3013 RMK AO1 SLP158 P0001
60003 T00500033 51010





000
SAUS45 KPIH 231352
MTRSNT
METAR KSNT 231351Z AUTO 17005KT 06/03 A3011 RMK AO1 SLP150 T00560028





000
SAUS45 KPIH 231252
MTRSNT
METAR KSNT 231251Z AUTO 00000KT 04/03 A3010 RMK AO1 SLP150 P0002
T00440033





000
SAUS45 KPIH 231152
MTRSNT
METAR KSNT 231151Z AUTO 17006KT 05/03 A3009 RMK AO1 SLP139 P0004
60017 70017 T00500033 10067 20044 57011





000
SAUS45 KPIH 231052
MTRSNT
METAR KSNT 231051Z AUTO 20006KT 04/03 A3010 RMK AO1 SLP143 P0005
T00440028





000
SAUS45 KPIH 230952
MTRSNT
METAR KSNT 230951Z AUTO VRB06G15KT 04/03 A3011 RMK AO1 SLP148 P0006
T00440028





000
SAUS45 KPIH 230952
MTRSNT
METAR KSNT 230951Z AUTO VRB06G15KT 04/03 A3011 RMK AO1 SLP148 P0006
T00440028





000
SAUS45 KPIH 230852
MTRSNT
METAR KSNT 230851Z AUTO 14007G15KT 05/03 A3013 RMK AO1 SLP158 P0002
60002 T00500028 53003





000
SAUS45 KPIH 230752
MTRSNT
METAR KSNT 230751Z AUTO 14007G17KT 06/02 A3012 RMK AO1 SLP157
T00610017





000
SAUS45 KPIH 230752
MTRSNT
METAR KSNT 230751Z AUTO 14007G17KT 06/02 A3012 RMK AO1 SLP157
T00610017





000
SAUS45 KPIH 230652
MTRSNT
METAR KSNT 230651Z AUTO VRB05KT 07/01 A3012 RMK AO1 SLP162 T00670006
400941033





000
SAUS45 KPIH 230552
MTRSNT
METAR KSNT 230551Z AUTO 15009KT 07/M01 A3012 RMK AO1 SLP163
T00671006 10083 20050 55001





000
SAUS45 KPIH 230552
MTRSNT
METAR KSNT 230551Z AUTO 15009KT 07/M01 A3012 RMK AO1 SLP163
T00671006 10083 20050 55001





000
SAUS45 KPIH 230452
MTRSNT
METAR KSNT 230451Z AUTO 17007KT 07/M02 A3012 RMK AO1 SLP166
T00671017





000
SAUS45 KPIH 230452
MTRSNT
METAR KSNT 230451Z AUTO 17007KT 07/M02 A3012 RMK AO1 SLP166
T00671017





000
SAUS45 KPIH 230352
MTRSNT
METAR KSNT 230351Z AUTO 15009KT 07/M02 A3012 RMK AO1 SLP168
T00671022





000
SAUS45 KPIH 230352
MTRSNT
METAR KSNT 230351Z AUTO 15009KT 07/M02 A3012 RMK AO1 SLP168
T00671022





000
SAUS45 KPIH 230252
MTRSNT
METAR KSNT 230251Z AUTO 15008KT 06/M03 A3012 RMK AO1 SLP173
T00611028 56002





000
SAUS45 KPIH 230152
MTRSNT
METAR KSNT 230151Z AUTO 16008KT 06/M03 A3012 RMK AO1 SLP176
T00611028





000
SAUS45 KPIH 230152
MTRSNT
METAR KSNT 230151Z AUTO 16008KT 06/M03 A3012 RMK AO1 SLP176
T00611028





000
SAUS45 KPIH 230052
MTRSNT
METAR KSNT 230051Z AUTO 15005KT 07/M02 A3012 RMK AO1 SLP172
T00671022





000
SAUS45 KPIH 230052
MTRSNT
METAR KSNT 230051Z AUTO 15005KT 07/M02 A3012 RMK AO1 SLP172
T00671022





000
SAUS45 KPIH 222352
MTRSNT
METAR KSNT 222351Z AUTO 16004KT 08/M03 A3013 RMK AO1 SLP170
T00831028 10094 20006 55009





000
SAUS45 KPIH 222352
MTRSNT
METAR KSNT 222351Z AUTO 16004KT 08/M03 A3013 RMK AO1 SLP170
T00831028 10094 20006 55009





000
SAUS45 KPIH 222252
MTRSNT
METAR KSNT 222251Z AUTO 15005KT 09/M03 A3013 RMK AO1 SLP166
T00891028





000
SAUS45 KPIH 222252
MTRSNT
METAR KSNT 222251Z AUTO 15005KT 09/M03 A3013 RMK AO1 SLP166
T00891028





000
SAUS45 KPIH 222152
MTRSNT
METAR KSNT 222151Z AUTO 35005KT 08/00 A3013 RMK AO1 SLP170 T00830000





000
SAUS45 KPIH 222052
MTRSNT
METAR KSNT 222051Z AUTO 34003KT 06/01 A3016 RMK AO1 SLP187 T00560006
58007





000
SAUS45 KPIH 221952
MTRSNT
METAR KSNT 221951Z AUTO 36004KT 05/00 A3017 RMK AO1 SLP193 T00500000





000
SAUS45 KPIH 221852
MTRSNT
METAR KSNT 221851Z AUTO 32005KT 01/M01 A3019 RMK AO1 SLP208
T00111011





000
SAUS45 KPIH 221752
MTRSNT
METAR KSNT 221751Z AUTO 36004KT 01/M01 A3019 RMK AO1 SLP207
T00061011 10006 21033 50001





000
SAUS45 KPIH 221752
MTRSNT
METAR KSNT 221751Z AUTO 36004KT 01/M01 A3019 RMK AO1 SLP207
T00061011 10006 21033 50001





000
SAUS45 KPIH 221652
MTRSNT
METAR KSNT 221651Z AUTO 35003KT 00/M01 A3019 RMK AO1 SLP212
T00001011





000
SAUS45 KPIH 221652
MTRSNT
METAR KSNT 221651Z AUTO 35003KT 00/M01 A3019 RMK AO1 SLP212
T00001011





000
SAUS45 KPIH 221552
MTRSNT
METAR KSNT 221551Z AUTO 03004KT M01/M02 A3020 RMK AO1 SLP212
T10111022





000
SAUS45 KPIH 221452
MTRSNT
METAR KSNT 221451Z AUTO 00000KT M02/M03 A3018 RMK AO1 SLP202
T10171028 53004





000
SAUS45 KPIH 221352
MTRSNT
METAR KSNT 221351Z AUTO 00000KT M03/M03 A3016 RMK AO1 SLP198
T10281033





000
SAUS45 KPIH 221252
MTRSNT
METAR KSNT 221251Z AUTO 00000KT M02/M03 A3017 RMK AO1 SLP197
T10221028





    US Dept of Commerce
    National Oceanic and Atmospheric Administration
    National Weather Service
    1325 East West Highway
    Silver Spring, MD 20910
    Page Author: NWS Internet Services Team
Disclaimer
Information Quality
Credits
Glossary
Privacy Policy
Freedom of Information Act (FOIA)
About Us
Career Opportunities